createdAt,value
2019-05-05T00:02:05.145Z,4.60
2019-05-05T00:04:34.854Z,4.50
2019-05-05T00:07:01.137Z,4.60
2019-05-05T00:09:27.325Z,4.50
2019-05-05T00:11:55.333Z,4.50
2019-05-05T00:14:35.360Z,4.60
2019-05-05T00:17:05.239Z,4.60
2019-05-05T00:19:33.487Z,4.60
2019-05-05T00:21:59.505Z,4.60
2019-05-05T00:24:25.565Z,4.50
2019-05-05T00:26:51.653Z,4.40
2019-05-05T00:29:17.709Z,4.30
2019-05-05T00:31:45.417Z,4.30
2019-05-05T00:34:11.738Z,4.30
2019-05-05T00:36:37.800Z,4.30
2019-05-05T00:39:07.247Z,4.40
2019-05-05T00:41:34.609Z,4.40
2019-05-05T00:44:00.951Z,4.30
2019-05-05T00:46:38.159Z,4.20
2019-05-05T00:49:05.416Z,4.20
2019-05-05T00:51:31.579Z,4.20
2019-05-05T00:53:57.631Z,4.20
2019-05-05T00:56:25.038Z,4.20
2019-05-05T00:58:55.169Z,4.10
2019-05-05T01:01:24.915Z,4.10
2019-05-05T01:03:51.281Z,4.10
2019-05-05T01:06:19.258Z,4.10
2019-05-05T01:08:45.389Z,4.00
2019-05-05T01:11:11.759Z,4.10
2019-05-05T01:13:38.031Z,4.20
2019-05-05T01:16:04.807Z,4.40
2019-05-05T01:18:31.159Z,4.30
2019-05-05T01:20:57.288Z,4.30
2019-05-05T01:23:24.393Z,4.30
2019-05-05T01:25:50.694Z,4.20
2019-05-05T01:28:16.991Z,4.20
2019-05-05T01:30:45.044Z,4.20
2019-05-05T01:33:29.688Z,4.10
2019-05-05T01:35:55.868Z,4.20
2019-05-05T01:38:26.590Z,4.20
2019-05-05T01:41:09.677Z,4.20
2019-05-05T01:43:35.848Z,4.20
2019-05-05T01:46:02.255Z,4.10
2019-05-05T01:48:28.328Z,4.10
2019-05-05T01:50:54.484Z,4.00
2019-05-05T01:53:20.548Z,4.10
2019-05-05T01:55:46.712Z,4.10
2019-05-05T01:58:15.212Z,4.10
2019-05-05T02:00:41.343Z,4.00
2019-05-05T02:03:07.511Z,4.10
2019-05-05T02:05:34.885Z,4.00
2019-05-05T02:08:01.271Z,4.10
2019-05-05T02:10:27.339Z,4.10
2019-05-05T02:12:55.119Z,4.10
2019-05-05T02:15:21.681Z,4.10
2019-05-05T02:17:47.755Z,4.20
2019-05-05T02:20:37.181Z,4.10
2019-05-05T02:23:04.682Z,4.20
2019-05-05T02:25:31.003Z,4.20
2019-05-05T02:27:57.127Z,4.10
2019-05-05T02:30:26.733Z,4.20
2019-05-05T02:32:55.497Z,4.20
2019-05-05T02:35:21.820Z,4.00
2019-05-05T02:37:48.043Z,4.10
2019-05-05T02:40:16.100Z,4.10
2019-05-05T02:42:45.554Z,4.10
2019-05-05T02:45:17.362Z,4.10
2019-05-05T02:47:46.125Z,4.10
2019-05-05T02:50:12.276Z,4.10
2019-05-05T02:52:39.269Z,4.10
2019-05-05T02:55:06.643Z,4.10
2019-05-05T02:57:34.559Z,4.20
2019-05-05T03:00:19.451Z,4.10
2019-05-05T03:02:45.610Z,4.00
2019-05-05T03:05:11.809Z,4.10
2019-05-05T03:07:38.480Z,4.10
2019-05-05T03:10:26.233Z,4.00
2019-05-05T03:12:54.393Z,3.80
2019-05-05T03:15:50.607Z,3.80
2019-05-05T03:18:16.777Z,3.70
2019-05-05T03:20:43.552Z,3.60
2019-05-05T03:23:09.925Z,3.70
2019-05-05T03:25:36.199Z,3.70
2019-05-05T03:28:04.324Z,3.70
2019-05-05T03:30:30.426Z,3.70
2019-05-05T03:32:56.894Z,3.80
2019-05-05T03:35:24.202Z,3.90
2019-05-05T03:37:50.503Z,3.90
2019-05-05T03:40:18.650Z,3.80
2019-05-05T03:42:46.624Z,3.80
2019-05-05T03:45:21.058Z,3.90
2019-05-05T03:47:47.929Z,3.80
2019-05-05T03:50:14.471Z,3.80
2019-05-05T03:52:41.088Z,3.70
2019-05-05T03:55:07.601Z,3.70
2019-05-05T03:57:33.966Z,3.70
2019-05-05T04:00:01.185Z,3.80
2019-05-05T04:02:29.258Z,3.70
2019-05-05T04:04:57.262Z,3.70
2019-05-05T04:07:24.215Z,3.70
2019-05-05T04:09:50.488Z,3.80
2019-05-05T04:12:17.114Z,3.70
2019-05-05T04:14:44.025Z,3.80
2019-05-05T04:17:14.140Z,3.90
2019-05-05T04:19:43.618Z,3.90
2019-05-05T04:22:09.800Z,3.80
2019-05-05T04:24:35.921Z,3.90
2019-05-05T04:27:03.883Z,3.80
2019-05-05T04:29:29.965Z,3.80
2019-05-05T04:31:56.028Z,3.60
2019-05-05T04:34:23.975Z,3.50
2019-05-05T04:36:50.139Z,3.60
2019-05-05T04:39:16.277Z,3.50
2019-05-05T04:41:44.046Z,3.60
2019-05-05T04:44:10.313Z,3.60
2019-05-05T04:46:36.516Z,3.70
2019-05-05T04:49:23.375Z,3.70
2019-05-05T04:51:54.029Z,3.70
2019-05-05T04:54:38.671Z,3.80
2019-05-05T04:57:04.909Z,3.80
2019-05-05T04:59:31.044Z,3.80
2019-05-05T05:01:59.092Z,3.70
2019-05-05T05:04:30.091Z,3.90
2019-05-05T05:06:58.140Z,3.90
2019-05-05T05:09:24.200Z,4.00
2019-05-05T05:11:50.365Z,4.00
2019-05-05T05:14:16.452Z,4.00
2019-05-05T05:16:43.722Z,4.00
2019-05-05T05:19:10.112Z,4.00
2019-05-05T05:21:36.459Z,4.00
2019-05-05T05:24:04.011Z,4.10
2019-05-05T05:26:30.287Z,4.20
2019-05-05T05:28:56.431Z,4.30
2019-05-05T05:31:24.426Z,4.30
2019-05-05T05:33:50.553Z,4.40
2019-05-05T05:36:16.637Z,4.50
2019-05-05T05:38:44.592Z,4.50
2019-05-05T05:41:13.690Z,4.50
2019-05-05T05:44:00.065Z,4.60
2019-05-05T05:46:36.919Z,4.70
2019-05-05T05:49:07.693Z,4.50
2019-05-05T05:51:34.251Z,4.70
2019-05-05T05:54:00.421Z,4.70
2019-05-05T05:56:26.480Z,4.70
2019-05-05T05:58:54.270Z,4.80
2019-05-05T06:01:20.443Z,4.90
2019-05-05T06:03:46.620Z,4.90
2019-05-05T06:06:13.814Z,4.90
2019-05-05T06:08:40.157Z,4.90
2019-05-05T06:11:06.365Z,4.80
2019-05-05T06:13:33.694Z,4.70
2019-05-05T06:16:00.377Z,4.60
2019-05-05T06:18:26.619Z,4.50
2019-05-05T06:20:53.728Z,4.60
2019-05-05T06:23:20.044Z,4.60
2019-05-05T06:25:46.103Z,4.50
2019-05-05T06:28:14.308Z,4.70
2019-05-05T06:30:40.296Z,4.70
2019-05-05T06:33:06.406Z,4.60
2019-05-05T06:35:33.797Z,4.60
2019-05-05T06:38:00.063Z,4.70
2019-05-05T06:40:31.039Z,4.70
2019-05-05T06:43:14.422Z,4.80
2019-05-05T06:45:45.190Z,4.90
2019-05-05T06:48:13.428Z,4.90
2019-05-05T06:50:39.287Z,5.10
2019-05-05T06:53:05.357Z,5.10
2019-05-05T06:55:31.491Z,5.10
2019-05-05T06:57:57.543Z,5.20
2019-05-05T07:00:24.167Z,5.30
2019-05-05T07:02:50.386Z,5.30
2019-05-05T07:05:16.480Z,5.30
2019-05-05T07:07:43.556Z,5.40
2019-05-05T07:10:09.950Z,5.50
2019-05-05T07:12:36.112Z,5.60
2019-05-05T07:15:05.297Z,5.60
2019-05-05T07:17:31.380Z,5.70
2019-05-05T07:19:57.449Z,5.80
2019-05-05T07:22:24.422Z,5.80
2019-05-05T07:24:50.685Z,5.90
2019-05-05T07:27:16.739Z,5.90
2019-05-05T07:29:43.659Z,6.00
2019-05-05T07:32:10.641Z,6.00
2019-05-05T07:34:55.277Z,6.00
2019-05-05T07:37:23.696Z,5.90
2019-05-05T07:39:49.346Z,6.00
2019-05-05T07:42:15.419Z,5.90
2019-05-05T07:44:41.477Z,6.00
2019-05-05T07:47:07.552Z,6.10
2019-05-05T07:49:33.698Z,6.00
2019-05-05T07:51:59.901Z,5.80
2019-05-05T07:54:26.179Z,6.10
2019-05-05T07:56:53.856Z,6.20
2019-05-05T07:59:20.242Z,6.30
2019-05-05T08:01:47.116Z,6.20
2019-05-05T08:04:13.720Z,6.00
2019-05-05T08:06:40.040Z,6.30
2019-05-05T08:09:06.527Z,6.40
2019-05-05T08:11:34.271Z,6.50
2019-05-05T08:14:00.560Z,6.30
2019-05-05T08:16:28.537Z,6.40
2019-05-05T08:18:56.516Z,6.20
2019-05-05T08:21:24.046Z,6.40
2019-05-05T08:23:58.145Z,6.70
2019-05-05T08:26:38.243Z,6.80
2019-05-05T08:29:23.959Z,6.80
2019-05-05T08:32:04.505Z,6.80
2019-05-05T08:34:30.640Z,6.90
2019-05-05T08:36:59.641Z,7.00
2019-05-05T08:39:24.729Z,6.80
2019-05-05T08:41:50.799Z,6.80
2019-05-05T08:44:18.131Z,6.70
2019-05-05T08:46:44.637Z,6.80
2019-05-05T08:49:10.831Z,6.80
2019-05-05T08:51:36.889Z,6.80
2019-05-05T08:54:03.884Z,6.90
2019-05-05T08:56:30.143Z,7.20
2019-05-05T08:58:57.067Z,7.40
2019-05-05T09:01:23.825Z,7.30
2019-05-05T09:03:50.107Z,7.30
2019-05-05T09:06:16.287Z,7.30
2019-05-05T09:08:44.156Z,7.30
2019-05-05T09:11:10.433Z,7.50
2019-05-05T09:13:36.484Z,7.70
2019-05-05T09:16:03.751Z,7.80
2019-05-05T09:18:30.160Z,8.10
2019-05-05T09:20:56.249Z,8.00
2019-05-05T09:23:24.040Z,7.80
2019-05-05T09:26:04.559Z,8.00
2019-05-05T09:28:34.111Z,8.30
2019-05-05T09:31:00.310Z,8.20
2019-05-05T09:33:26.369Z,8.00
2019-05-05T09:35:54.172Z,8.00
2019-05-05T09:38:20.528Z,7.70
2019-05-05T09:40:46.579Z,7.70
2019-05-05T09:43:14.811Z,7.50
2019-05-05T09:45:41.012Z,7.30
2019-05-05T09:48:07.089Z,7.30
2019-05-05T09:50:34.189Z,7.30
2019-05-05T09:53:00.719Z,7.50
2019-05-05T09:55:26.791Z,7.50
2019-05-05T09:57:53.990Z,7.60
2019-05-05T10:00:20.712Z,7.40
2019-05-05T10:02:46.793Z,7.60
2019-05-05T10:05:14.509Z,7.60
2019-05-05T10:07:40.737Z,7.70
2019-05-05T10:10:07.013Z,7.70
2019-05-05T10:12:33.928Z,7.60
2019-05-05T10:14:59.998Z,7.50
2019-05-05T10:17:26.076Z,7.80
2019-05-05T10:19:52.140Z,7.70
2019-05-05T10:22:18.232Z,7.90
2019-05-05T10:24:46.194Z,7.90
2019-05-05T10:27:12.339Z,7.80
2019-05-05T10:29:38.420Z,8.00
2019-05-05T10:32:04.752Z,8.20
2019-05-05T10:34:30.964Z,8.10
2019-05-05T10:36:57.067Z,8.20
2019-05-05T10:39:30.584Z,8.30
2019-05-05T10:41:56.861Z,8.40
2019-05-05T10:44:22.912Z,8.40
2019-05-05T10:46:49.023Z,8.30
2019-05-05T10:49:15.112Z,8.50
2019-05-05T10:51:41.281Z,8.80
2019-05-05T10:54:08.385Z,8.70
2019-05-05T10:56:34.590Z,8.80
2019-05-05T10:59:00.810Z,9.00
2019-05-05T11:01:27.026Z,9.40
2019-05-05T11:03:53.387Z,9.80
2019-05-05T11:06:19.472Z,10.10
2019-05-05T11:08:45.745Z,10.20
2019-05-05T11:11:13.720Z,10.30
2019-05-05T11:13:42.709Z,10.30
2019-05-05T11:16:08.079Z,10.30
2019-05-05T11:18:34.686Z,10.40
2019-05-05T11:21:01.022Z,10.60
2019-05-05T11:23:27.083Z,10.90
2019-05-05T11:25:54.534Z,11.00
2019-05-05T11:28:21.704Z,11.10
2019-05-05T11:30:47.975Z,11.00
2019-05-05T11:33:23.686Z,11.20
2019-05-05T11:36:10.007Z,11.00
2019-05-05T11:38:36.068Z,10.60
2019-05-05T11:41:02.352Z,10.50
2019-05-05T11:43:28.436Z,10.70
2019-05-05T11:45:54.637Z,10.20
2019-05-05T11:48:20.797Z,10.00
2019-05-05T11:50:47.167Z,9.70
2019-05-05T11:53:14.497Z,9.30
2019-05-05T11:55:41.005Z,9.30
2019-05-05T11:58:07.174Z,9.30
2019-05-05T12:00:34.697Z,9.50
2019-05-05T12:03:00.941Z,9.70
2019-05-05T12:05:27.120Z,9.60
2019-05-05T12:07:54.114Z,10.00
2019-05-05T12:10:27.859Z,9.80
2019-05-05T12:13:01.604Z,9.60
2019-05-05T12:15:27.813Z,9.70
2019-05-05T12:17:54.528Z,10.00
2019-05-05T12:20:38.120Z,10.40
2019-05-05T12:23:04.819Z,10.60
2019-05-05T12:25:54.364Z,10.80
2019-05-05T12:28:34.637Z,11.10
2019-05-05T12:31:08.879Z,11.20
2019-05-05T12:40:33.706Z,11.30
2019-05-05T12:42:59.925Z,10.80
2019-05-05T12:45:27.892Z,11.00
2019-05-05T12:48:08.011Z,10.90
2019-05-05T12:50:34.179Z,10.80
2019-05-05T12:53:00.253Z,10.60
2019-05-05T12:55:39.107Z,10.90
2019-05-05T12:57:54.392Z,10.80
2019-05-05T13:00:21.262Z,10.90
2019-05-05T13:02:47.330Z,10.90
2019-05-05T13:05:14.444Z,11.20
2019-05-05T13:07:40.698Z,11.30
2019-05-05T13:10:07.471Z,11.40
2019-05-05T13:12:34.393Z,11.10
2019-05-05T13:15:00.607Z,11.00
2019-05-05T13:17:26.688Z,11.10
2019-05-05T13:19:54.656Z,11.30
2019-05-05T13:22:33.666Z,11.70
2019-05-05T13:25:19.620Z,12.00
2019-05-05T13:27:45.696Z,12.20
2019-05-05T13:30:11.966Z,12.00
2019-05-05T13:32:38.030Z,12.00
2019-05-05T13:35:06.190Z,11.70
2019-05-05T13:37:33.797Z,11.80
2019-05-05T13:40:00.056Z,11.70
2019-05-05T13:42:26.151Z,11.50
2019-05-05T13:45:03.921Z,11.00
2019-05-05T13:47:30.168Z,10.60
2019-05-05T13:49:58.230Z,10.30
2019-05-05T13:52:24.486Z,10.30
2019-05-05T13:54:50.684Z,10.70
2019-05-05T13:57:16.752Z,10.80
2019-05-05T13:59:44.491Z,10.90
2019-05-05T14:02:10.840Z,10.80
2019-05-05T14:04:36.925Z,10.80
2019-05-05T14:07:03.997Z,10.70
2019-05-05T14:09:30.367Z,10.60
2019-05-05T14:11:56.444Z,10.70
2019-05-05T14:14:24.264Z,10.50
2019-05-05T14:16:50.513Z,10.10
2019-05-05T14:19:16.627Z,9.60
2019-05-05T14:21:44.638Z,9.70
2019-05-05T14:24:14.341Z,9.80
2019-05-05T14:26:40.585Z,10.00
2019-05-05T14:29:08.545Z,10.00
2019-05-05T14:31:44.303Z,10.00
2019-05-05T14:34:21.052Z,9.90
2019-05-05T14:36:49.037Z,9.90
2019-05-05T14:39:17.016Z,9.70
2019-05-05T14:41:44.605Z,9.70
2019-05-05T14:44:10.922Z,10.00
2019-05-05T14:46:37.009Z,10.00
2019-05-05T14:49:05.581Z,10.00
2019-05-05T14:51:31.157Z,10.20
2019-05-05T14:53:57.323Z,10.30
2019-05-05T14:56:35.403Z,10.50
2019-05-05T14:58:51.540Z,10.80
2019-05-05T15:01:17.596Z,10.90
2019-05-05T15:03:44.453Z,11.10
2019-05-05T15:06:23.799Z,11.30
2019-05-05T15:08:57.805Z,11.60
2019-05-05T15:11:44.398Z,11.80
2019-05-05T15:14:10.635Z,11.90
2019-05-05T15:16:36.829Z,12.10
2019-05-05T15:19:03.902Z,11.90
2019-05-05T15:21:30.237Z,11.80
2019-05-05T15:23:56.344Z,11.70
2019-05-05T15:26:23.788Z,12.00
2019-05-05T15:29:01.335Z,11.90
2019-05-05T15:31:18.084Z,11.30
2019-05-05T15:33:44.212Z,11.30
2019-05-05T15:36:10.332Z,11.00
2019-05-05T15:38:36.408Z,10.80
2019-05-05T15:41:03.955Z,10.70
2019-05-05T15:43:30.260Z,10.50
2019-05-05T15:45:56.430Z,10.10
2019-05-05T15:48:22.519Z,9.80
2019-05-05T15:50:48.596Z,9.70
2019-05-05T15:53:14.656Z,9.70
2019-05-05T15:55:40.749Z,9.80
2019-05-05T15:58:06.824Z,9.70
2019-05-05T16:00:33.757Z,9.50
2019-05-05T16:02:59.957Z,9.50
2019-05-05T16:05:26.052Z,9.50
2019-05-05T16:07:54.162Z,9.70
2019-05-05T16:10:22.625Z,9.90
2019-05-05T16:13:05.958Z,10.00
2019-05-05T16:15:34.537Z,10.20
2019-05-05T16:18:20.774Z,10.20
2019-05-05T16:21:05.149Z,10.30
2019-05-05T16:23:43.579Z,10.30
2019-05-05T16:26:10.785Z,10.30
2019-05-05T16:28:36.884Z,10.30
2019-05-05T16:31:05.250Z,10.30
2019-05-05T16:33:31.100Z,10.30
2019-05-05T16:35:57.159Z,10.30
2019-05-05T16:38:24.037Z,10.30
2019-05-05T16:40:50.702Z,10.20
2019-05-05T16:43:17.215Z,10.10
2019-05-05T16:45:44.535Z,10.20
2019-05-05T16:48:10.840Z,10.30
2019-05-05T16:50:36.995Z,10.30
2019-05-05T16:53:04.729Z,10.20
2019-05-05T16:55:36.091Z,10.10
2019-05-05T16:58:04.065Z,9.90
2019-05-05T17:00:31.076Z,9.90
2019-05-05T17:02:57.197Z,9.80
2019-05-05T17:05:24.103Z,9.70
2019-05-05T17:07:50.489Z,9.70
2019-05-05T17:10:16.669Z,9.70
2019-05-05T17:12:44.282Z,9.50
2019-05-05T17:15:28.361Z,9.10
2019-05-05T17:18:08.436Z,8.80
2019-05-05T17:20:53.588Z,8.80
2019-05-05T17:23:21.115Z,9.00
2019-05-05T17:25:47.185Z,9.00
2019-05-05T17:28:13.689Z,9.00
2019-05-05T17:30:39.820Z,9.10
2019-05-05T17:33:05.919Z,9.20
2019-05-05T17:35:33.666Z,9.00
2019-05-05T17:38:07.396Z,9.20
2019-05-05T17:40:37.904Z,9.20
2019-05-05T17:43:27.352Z,9.20
2019-05-05T17:46:11.027Z,8.90
2019-05-05T17:48:55.646Z,8.90
2019-05-05T17:51:31.301Z,8.80
2019-05-05T17:54:02.249Z,8.70
2019-05-05T17:56:28.366Z,8.80
2019-05-05T17:58:54.564Z,8.90
2019-05-05T18:01:20.757Z,9.00
2019-05-05T18:03:46.831Z,8.80
2019-05-05T18:06:17.821Z,8.90
2019-05-05T18:08:45.808Z,9.00
2019-05-05T18:11:30.619Z,8.90
2019-05-05T18:14:15.333Z,8.80
2019-05-05T18:16:41.503Z,8.80
2019-05-05T18:19:07.613Z,8.80
2019-05-05T18:21:34.781Z,9.00
2019-05-05T18:24:02.655Z,9.10
2019-05-05T18:26:28.781Z,9.20
2019-05-05T18:28:54.845Z,9.10
2019-05-05T18:31:20.921Z,8.90
2019-05-05T18:33:47.018Z,9.00
2019-05-05T18:36:14.167Z,8.80
2019-05-05T18:38:40.559Z,8.70
2019-05-05T18:41:08.533Z,8.60
2019-05-05T18:43:39.051Z,8.70
2019-05-05T18:46:05.136Z,8.70
2019-05-05T18:48:31.317Z,8.50
2019-05-05T18:50:57.396Z,8.30
2019-05-05T18:53:23.545Z,8.30
2019-05-05T18:55:49.604Z,8.30
2019-05-05T18:58:26.966Z,8.20
2019-05-05T19:01:00.664Z,8.20
2019-05-05T19:03:33.677Z,8.10
2019-05-05T19:06:01.478Z,8.10
2019-05-05T19:08:29.461Z,8.10
2019-05-05T19:10:55.506Z,8.00
2019-05-05T19:13:21.589Z,8.00
2019-05-05T19:15:47.789Z,8.00
2019-05-05T19:18:14.145Z,8.10
2019-05-05T19:20:48.051Z,8.00
2019-05-05T19:23:14.741Z,8.00
2019-05-05T19:25:41.013Z,7.90
2019-05-05T19:28:07.072Z,8.00
2019-05-05T19:30:35.776Z,8.10
2019-05-05T19:33:01.110Z,8.10
2019-05-05T19:35:40.164Z,8.00
2019-05-05T19:37:55.180Z,8.10
2019-05-05T19:40:21.354Z,8.00
2019-05-05T19:42:47.416Z,8.10
2019-05-05T19:45:13.876Z,8.00
2019-05-05T19:47:39.965Z,8.00
2019-05-05T19:50:08.835Z,8.10
2019-05-05T19:52:35.769Z,8.20
2019-05-05T19:55:04.487Z,8.10
2019-05-05T19:57:30.703Z,8.10
2019-05-05T19:59:56.785Z,8.10
2019-05-05T20:02:23.579Z,8.10
2019-05-05T20:04:49.729Z,8.00
2019-05-05T20:07:15.828Z,8.00
2019-05-05T20:09:43.560Z,8.20
2019-05-05T20:12:09.856Z,8.40
2019-05-05T20:14:35.951Z,8.50
2019-05-05T20:17:16.028Z,8.60
2019-05-05T20:19:44.016Z,8.70
2019-05-05T20:22:10.374Z,8.70
2019-05-05T20:24:36.432Z,8.70
2019-05-05T20:27:04.573Z,8.70
2019-05-05T20:29:33.905Z,8.80
2019-05-05T20:31:58.728Z,8.80
2019-05-05T20:34:26.713Z,8.70
2019-05-05T20:37:07.057Z,8.70
2019-05-05T20:39:33.133Z,8.30
2019-05-05T20:41:59.275Z,7.90
2019-05-05T20:44:25.349Z,7.70
2019-05-05T20:46:53.447Z,7.60
2019-05-05T20:49:19.380Z,7.60
2019-05-05T20:51:45.453Z,7.60
2019-05-05T20:54:11.523Z,7.50
2019-05-05T20:56:37.601Z,7.30
2019-05-05T20:59:03.668Z,7.30
2019-05-05T21:01:30.041Z,7.20
2019-05-05T21:03:56.104Z,7.10
2019-05-05T21:06:24.434Z,7.20
2019-05-05T21:08:50.143Z,7.30
2019-05-05T21:11:16.221Z,7.40
2019-05-05T21:13:44.419Z,7.40
2019-05-05T21:16:10.257Z,7.40
2019-05-05T21:18:36.330Z,7.20
2019-05-05T21:21:04.560Z,7.30
2019-05-05T21:23:38.654Z,7.50
2019-05-05T21:26:15.384Z,7.40
2019-05-05T21:28:41.466Z,7.40
2019-05-05T21:31:07.520Z,7.20
2019-05-05T21:33:34.819Z,7.00
2019-05-05T21:36:01.152Z,6.80
2019-05-05T21:38:27.221Z,6.70
2019-05-05T21:40:53.304Z,6.70
2019-05-05T21:43:19.369Z,6.60
2019-05-05T21:45:45.436Z,6.70
2019-05-05T21:48:13.510Z,6.90
2019-05-05T21:50:50.292Z,6.90
2019-05-05T21:53:21.112Z,6.80
2019-05-05T21:55:52.108Z,6.80
2019-05-05T21:58:22.687Z,6.60
2019-05-05T22:00:49.953Z,6.40
2019-05-05T22:03:27.124Z,6.30
2019-05-05T22:05:53.954Z,6.30
2019-05-05T22:08:21.152Z,6.10
2019-05-05T22:10:47.243Z,6.10
2019-05-05T22:13:14.228Z,6.10
2019-05-05T22:15:40.489Z,6.00
2019-05-05T22:18:06.557Z,6.00
2019-05-05T22:20:38.396Z,6.00
2019-05-05T22:23:04.461Z,5.90
2019-05-05T22:25:30.533Z,5.90
2019-05-05T22:27:56.583Z,5.80
2019-05-05T22:30:23.691Z,5.80
2019-05-05T22:32:49.919Z,5.80
2019-05-05T22:35:16.313Z,5.80
2019-05-05T22:37:43.932Z,5.70
2019-05-05T22:40:21.187Z,5.70
2019-05-05T22:42:47.552Z,5.60
2019-05-05T22:45:14.274Z,5.50
2019-05-05T22:47:40.393Z,5.70
2019-05-05T22:50:06.564Z,5.90
2019-05-05T22:52:34.336Z,5.90
2019-05-05T22:55:00.688Z,6.10
2019-05-05T22:57:26.755Z,6.10
2019-05-05T22:59:54.161Z,6.10
2019-05-05T23:02:24.394Z,6.20
2019-05-05T23:04:58.323Z,6.20
2019-05-05T23:07:31.801Z,6.20
2019-05-05T23:09:57.849Z,6.10
2019-05-05T23:12:24.411Z,6.10
2019-05-05T23:14:51.281Z,6.00
2019-05-05T23:17:34.227Z,6.00
2019-05-05T23:20:04.649Z,6.00
2019-05-05T23:22:34.695Z,5.90
2019-05-05T23:25:03.968Z,5.80
2019-05-05T23:27:49.554Z,5.80
2019-05-05T23:30:18.799Z,5.70
2019-05-05T23:32:45.269Z,5.60
2019-05-05T23:35:11.545Z,5.50
2019-05-05T23:37:37.602Z,5.50
2019-05-05T23:40:04.672Z,5.50
2019-05-05T23:42:31.245Z,5.50
2019-05-05T23:44:57.310Z,5.50
2019-05-05T23:47:24.773Z,5.60
2019-05-05T23:49:50.948Z,5.60
2019-05-05T23:52:17.038Z,5.50
2019-05-05T23:54:44.650Z,5.40
2019-05-05T23:57:10.856Z,5.30
2019-05-05T23:59:36.921Z,5.20
